Time;durP1;ratioP1;P1;durP2;ratioP2;P2;SDS_P1;SDS_P2;PMS_P1;PMS_P2;Temp;Humidity;BMP_temperature;BMP_pressure;BME280_temperature;BME280_humidity;BME280_pressure;Samples;Min_cycle;Max_cycle;Signal;HPM_P1;HPM_P2
2022/09/23 00:00:20;;;;;;;4.97;3.00;;;9.90;99.90;;;;;;4958389;28;20027;-73
2022/09/23 00:02:47;;;;;;;7.45;3.80;;;9.80;99.90;;;;;;4976431;28;20037;-73
2022/09/23 00:05:14;;;;;;;5.75;3.45;;;9.80;99.90;;;;;;4958744;28;20027;-72
2022/09/23 00:07:39;;;;;;;5.72;3.33;;;9.80;99.90;;;;;;4976295;28;20039;-73
2022/09/23 00:10:05;;;;;;;5.28;3.15;;;9.80;99.90;;;;;;4975591;28;20080;-73
2022/09/23 00:12:32;;;;;;;5.43;3.40;;;9.80;99.90;;;;;;4976415;28;20027;-73
2022/09/23 00:14:57;;;;;;;7.45;3.63;;;9.70;99.90;;;;;;4976584;28;20069;-74
2022/09/23 00:17:23;;;;;;;8.45;3.67;;;9.70;99.90;;;;;;4974977;28;20579;-72
2022/09/23 00:19:49;;;;;;;9.55;3.70;;;9.70;99.90;;;;;;4976292;28;20020;-72
2022/09/23 00:22:15;;;;;;;9.57;3.35;;;9.70;99.90;;;;;;4975794;28;20026;-73
2022/09/23 00:24:40;;;;;;;11.27;3.47;;;9.70;99.90;;;;;;4958320;28;20094;-72
2022/09/23 00:27:06;;;;;;;8.98;3.80;;;9.70;99.90;;;;;;4976118;28;20023;-73
2022/09/23 00:29:32;;;;;;;7.60;3.47;;;9.60;99.90;;;;;;4975962;28;20033;-72
2022/09/23 00:31:58;;;;;;;7.00;3.63;;;9.60;99.90;;;;;;4976082;28;20050;-74
2022/09/23 00:34:24;;;;;;;7.32;3.58;;;9.60;99.90;;;;;;4974658;28;20042;-73
2022/09/23 00:36:49;;;;;;;8.02;3.35;;;9.60;99.90;;;;;;4973923;28;20050;-73
2022/09/23 00:39:15;;;;;;;9.77;3.90;;;9.60;99.90;;;;;;4975631;28;20019;-73
2022/09/23 00:41:40;;;;;;;4.32;3.05;;;9.60;99.90;;;;;;4975835;28;20035;-72
2022/09/23 00:44:43;;;;;;;5.20;3.25;;;9.60;99.90;;;;;;4975867;28;20141;-73
2022/09/23 00:47:37;;;;;;;6.55;3.92;;;9.60;99.90;;;;;;4957755;28;20027;-72
2022/09/23 00:50:15;;;;;;;5.75;3.53;;;9.60;99.90;;;;;;4974398;28;20026;-72
2022/09/23 00:52:41;;;;;;;4.55;2.92;;;9.50;99.90;;;;;;4975258;28;20213;-73
2022/09/23 00:55:11;;;;;;;7.60;3.47;;;9.50;99.90;;;;;;4975171;28;20054;-74
2022/09/23 00:57:41;;;;;;;8.02;3.42;;;9.50;99.90;;;;;;4974612;28;20027;-73
2022/09/23 01:00:07;;;;;;;5.25;3.55;;;9.50;99.90;;;;;;4957332;28;20023;-74
2022/09/23 01:02:33;;;;;;;6.35;3.65;;;9.50;99.90;;;;;;4975552;28;20027;-74
2022/09/23 01:05:02;;;;;;;9.18;3.67;;;9.50;99.90;;;;;;4975001;28;20114;-74
2022/09/23 01:07:28;;;;;;;8.38;4.25;;;9.40;99.90;;;;;;4975177;28;20078;-74
2022/09/23 01:09:56;;;;;;;4.95;3.00;;;9.40;99.90;;;;;;4975343;28;20027;-73
2022/09/23 01:12:41;;;;;;;10.45;3.45;;;9.40;99.90;;;;;;4974404;28;20027;-73
2022/09/23 01:15:06;;;;;;;5.30;3.28;;;9.40;99.90;;;;;;4974782;28;20067;-74
2022/09/23 01:17:42;;;;;;;4.65;3.10;;;9.30;99.90;;;;;;4957860;28;20035;-73
2022/09/23 01:20:11;;;;;;;7.85;3.60;;;9.30;99.90;;;;;;4974545;28;20034;-73
2022/09/23 01:22:43;;;;;;;9.50;3.67;;;9.20;99.90;;;;;;4974797;28;20587;-73
2022/09/23 01:25:40;;;;;;;6.72;3.65;;;9.30;99.90;;;;;;4974772;28;20019;-74
2022/09/23 01:28:24;;;;;;;5.50;3.40;;;9.30;99.90;;;;;;4974486;28;20023;-73
2022/09/23 01:31:07;;;;;;;5.32;3.25;;;9.20;99.90;;;;;;4974329;28;20106;-74
2022/09/23 01:33:53;;;;;;;5.47;3.00;;;9.20;99.90;;;;;;4974697;28;20491;-73
2022/09/23 01:36:44;;;;;;;4.70;3.13;;;9.30;99.90;;;;;;4973968;28;20118;-73
2022/09/23 01:39:37;;;;;;;7.72;3.70;;;9.30;99.90;;;;;;4973910;28;20019;-73
2022/09/23 01:42:02;;;;;;;10.32;3.15;;;9.30;99.90;;;;;;4972993;28;20051;-74
2022/09/23 01:44:50;;;;;;;5.13;3.17;;;9.30;99.90;;;;;;4974737;28;20018;-74
2022/09/23 01:47:25;;;;;;;5.55;3.22;;;9.20;99.90;;;;;;4974616;28;20059;-72
2022/09/23 01:50:55;;;;;;;6.13;3.75;;;9.20;99.90;;;;;;4956819;28;20095;-72
2022/09/23 01:52:55;;;;;;;8.05;4.00;;;9.20;99.90;;;;;;4973812;28;20503;-73
2022/09/23 01:55:35;;;;;;;5.60;3.33;;;9.20;99.90;;;;;;4956046;28;20054;-73
2022/09/23 01:58:16;;;;;;;8.30;3.70;;;9.20;99.90;;;;;;4974738;28;20038;-73
2022/09/23 02:00:53;;;;;;;6.10;3.25;;;9.20;99.90;;;;;;4974479;28;20031;-73
2022/09/23 02:03:40;;;;;;;7.60;3.83;;;9.20;99.90;;;;;;4974439;28;20015;-72
2022/09/23 02:06:13;;;;;;;6.07;3.35;;;9.20;99.90;;;;;;4956504;28;20106;-72
2022/09/23 02:08:47;;;;;;;5.68;3.45;;;9.20;99.90;;;;;;4973430;28;20059;-72
2022/09/23 02:11:14;;;;;;;;;;;9.20;99.90;;;;;;4956591;28;20468;-72
2022/09/23 02:14:02;;;;;;;7.85;3.70;;;9.20;99.90;;;;;;4973508;28;19914;-72
2022/09/23 02:16:38;;;;;;;6.82;3.95;;;9.20;99.90;;;;;;4973853;28;20031;-75
2022/09/23 02:19:36;;;;;;;6.03;3.42;;;9.20;99.90;;;;;;4973586;28;20070;-73
2022/09/23 02:22:17;;;;;;;7.63;3.75;;;9.30;99.90;;;;;;4949767;28;20102;-73
2022/09/23 02:24:43;;;;;;;9.43;3.97;;;9.30;99.90;;;;;;4972985;28;20033;-73
2022/09/23 02:27:31;;;;;;;5.32;3.42;;;9.30;99.90;;;;;;4956425;28;20038;-73
2022/09/23 02:30:10;;;;;;;6.40;3.72;;;9.30;99.90;;;;;;4972658;28;20051;-73
2022/09/23 02:33:00;;;;;;;5.55;3.38;;;9.30;99.90;;;;;;4973820;28;20018;-73
2022/09/23 02:35:36;;;;;;;6.68;3.67;;;9.30;99.90;;;;;;4972525;28;20042;-73
2022/09/23 02:38:37;;;;;;;7.68;3.40;;;9.30;99.90;;;;;;4956144;28;20041;-74
2022/09/23 02:41:13;;;;;;;7.32;3.85;;;9.30;99.90;;;;;;4955556;28;20031;-74
2022/09/23 02:44:06;;;;;;;4.95;3.28;;;9.30;99.90;;;;;;5139280;27;20432;-72
2022/09/23 02:46:32;;;;;;;5.28;3.35;;;9.30;99.90;;;;;;5139863;27;20031;-73
2022/09/23 02:49:09;;;;;;;6.93;3.83;;;9.20;99.90;;;;;;5139844;27;20046;-74
2022/09/23 02:51:37;;;;;;;5.65;3.63;;;9.20;99.90;;;;;;5139821;28;20027;-73
2022/09/23 02:54:06;;;;;;;8.05;3.63;;;9.30;99.90;;;;;;5136182;27;20055;-72
2022/09/23 02:56:32;;;;;;;5.78;3.22;;;9.30;99.90;;;;;;5137833;27;20020;-72
2022/09/23 02:58:58;;;;;;;4.05;2.63;;;9.30;99.90;;;;;;5139243;27;20020;-73
2022/09/23 03:01:31;;;;;;;5.63;3.58;;;9.30;99.90;;;;;;5139484;27;20023;-71
2022/09/23 03:03:57;;;;;;;8.73;3.83;;;9.30;99.90;;;;;;5139477;28;20719;-72
2022/09/23 03:06:31;;;;;;;4.85;3.08;;;9.30;99.90;;;;;;5138929;27;20031;-73
2022/09/23 03:09:24;;;;;;;5.28;3.50;;;9.30;99.90;;;;;;5139348;27;20019;-74
2022/09/23 03:11:58;;;;;;;5.95;3.38;;;9.30;99.90;;;;;;5126587;27;20075;-72
2022/09/23 03:14:40;;;;;;;5.10;3.33;;;9.20;99.90;;;;;;5139669;27;20022;-71
2022/09/23 03:17:16;;;;;;;5.28;3.33;;;9.20;99.90;;;;;;5138533;28;20383;-72
2022/09/23 03:19:52;;;;;;;4.65;2.85;;;9.20;99.90;;;;;;5138804;27;20020;-72
2022/09/23 03:22:21;;;;;;;6.45;3.55;;;9.20;99.90;;;;;;5136996;27;20068;-72
2022/09/23 03:24:49;;;;;;;6.45;3.40;;;9.20;99.90;;;;;;5138058;27;20087;-72
2022/09/23 03:27:19;;;;;;;4.57;3.10;;;9.20;99.90;;;;;;5138905;27;20030;-73
2022/09/23 03:29:49;;;;;;;6.40;3.95;;;9.20;99.90;;;;;;5137213;27;20042;-73
2022/09/23 03:32:18;;;;;;;6.20;3.28;;;9.20;99.90;;;;;;5138383;27;20055;-72
2022/09/23 03:34:47;;;;;;;5.75;3.58;;;9.20;99.90;;;;;;5138458;27;20052;-72
2022/09/23 03:37:30;;;;;;;5.40;3.25;;;9.20;99.90;;;;;;5136743;27;20024;-73
2022/09/23 03:40:14;;;;;;;6.85;4.05;;;9.20;99.90;;;;;;5138201;27;20019;-73
2022/09/23 03:42:40;;;;;;;6.15;3.25;;;9.20;99.90;;;;;;5138078;27;20058;-73
2022/09/23 03:45:17;;;;;;;7.88;3.67;;;9.10;99.90;;;;;;5137993;27;20023;-74
2022/09/23 03:47:43;;;;;;;6.20;2.90;;;9.10;99.90;;;;;;5138401;27;20026;-73
2022/09/23 03:50:12;;;;;;;8.00;4.05;;;9.10;99.90;;;;;;5138599;27;20075;-73
2022/09/23 03:52:38;;;;;;;7.13;3.80;;;9.10;99.90;;;;;;5136551;28;20023;-73
2022/09/23 03:55:07;;;;;;;6.70;3.53;;;9.10;99.90;;;;;;5124958;27;20036;-74
2022/09/23 03:57:33;;;;;;;7.65;3.75;;;9.00;99.90;;;;;;5124241;28;20028;-74
2022/09/23 03:59:59;;;;;;;7.13;3.50;;;9.00;99.90;;;;;;5124729;28;20038;-74
2022/09/23 04:02:25;;;;;;;8.60;4.22;;;9.00;99.90;;;;;;5124643;28;20051;-73
2022/09/23 04:04:51;;;;;;;5.53;3.58;;;9.00;99.90;;;;;;5124678;28;20440;-73
2022/09/23 04:07:17;;;;;;;8.18;3.95;;;9.00;99.90;;;;;;5123769;28;20041;-72
2022/09/23 04:09:43;;;;;;;5.88;3.55;;;8.90;99.90;;;;;;5124411;28;20016;-72
2022/09/23 04:12:12;;;;;;;7.93;3.75;;;8.90;99.90;;;;;;5123634;28;20027;-73
2022/09/23 04:14:38;;;;;;;8.07;3.70;;;8.90;99.90;;;;;;5123524;28;20027;-73
2022/09/23 04:17:04;;;;;;;6.22;3.72;;;8.90;99.90;;;;;;5124482;28;20027;-74
2022/09/23 04:19:29;;;;;;;9.43;4.10;;;8.90;99.90;;;;;;5124211;28;20028;-73
2022/09/23 04:21:55;;;;;;;8.27;3.65;;;8.90;99.90;;;;;;5124252;28;20037;-74
2022/09/23 04:24:21;;;;;;;5.75;3.58;;;8.80;99.90;;;;;;5122830;28;20837;-73
2022/09/23 04:26:53;;;;;;;6.30;3.38;;;8.90;99.90;;;;;;5124009;28;20023;-73
2022/09/23 04:29:20;;;;;;;6.38;3.30;;;8.80;99.90;;;;;;5123057;28;20012;-72
2022/09/23 04:31:46;;;;;;;12.25;4.22;;;8.90;99.90;;;;;;5123816;28;20042;-74
2022/09/23 04:34:14;;;;;;;6.55;3.58;;;8.80;99.90;;;;;;5123404;28;20024;-75
2022/09/23 04:36:40;;;;;;;7.40;4.50;;;8.80;99.90;;;;;;5123523;28;20046;-73
2022/09/23 04:39:06;;;;;;;6.25;3.53;;;8.80;99.90;;;;;;5122984;28;20043;-73
2022/09/23 04:41:32;;;;;;;16.05;3.78;;;8.80;99.90;;;;;;5123368;28;20059;-75
2022/09/23 04:43:57;;;;;;;7.95;3.78;;;8.80;99.90;;;;;;5122837;28;20030;-73
2022/09/23 04:46:23;;;;;;;6.28;3.40;;;8.80;99.90;;;;;;5122140;28;20091;-73
2022/09/23 04:48:49;;;;;;;4.53;2.92;;;8.70;99.90;;;;;;5121513;28;20023;-74
2022/09/23 04:51:16;;;;;;;5.60;3.60;;;8.70;99.90;;;;;;5122010;28;20049;-73
2022/09/23 04:53:44;;;;;;;5.90;3.47;;;8.70;99.90;;;;;;5122723;28;20020;-74
2022/09/23 04:56:22;;;;;;;6.75;3.55;;;8.70;99.90;;;;;;5123770;28;20083;-73
2022/09/23 04:58:48;;;;;;;5.47;3.22;;;8.60;99.90;;;;;;5123525;28;20028;-73
2022/09/23 05:01:23;;;;;;;7.75;4.13;;;8.60;99.90;;;;;;5121411;28;20027;-75
2022/09/23 05:03:49;;;;;;;9.27;3.90;;;8.60;99.90;;;;;;5121912;27;20102;-72
2022/09/23 05:06:14;;;;;;;7.97;4.32;;;8.60;99.90;;;;;;5122210;28;20024;-73
2022/09/23 05:08:45;;;;;;;6.65;4.25;;;8.60;99.90;;;;;;5123165;28;20031;-73
2022/09/23 05:11:10;;;;;;;8.23;4.28;;;8.60;99.90;;;;;;5123371;28;20030;-73
2022/09/23 05:13:36;;;;;;;6.03;3.63;;;8.50;99.90;;;;;;5123318;28;20027;-72
2022/09/23 05:16:04;;;;;;;8.15;4.20;;;8.50;99.90;;;;;;5118263;28;20028;-73
2022/09/23 05:18:30;;;;;;;6.82;3.85;;;8.50;99.90;;;;;;5117417;28;20099;-72
2022/09/23 05:20:57;;;;;;;8.23;3.95;;;8.50;99.90;;;;;;5120354;28;20048;-73
2022/09/23 05:23:23;;;;;;;7.57;4.25;;;8.50;99.90;;;;;;5121834;28;20043;-72
2022/09/23 05:25:59;;;;;;;6.70;3.97;;;8.50;99.90;;;;;;5121171;28;20100;-72
2022/09/23 05:28:26;;;;;;;4.85;3.50;;;8.50;99.90;;;;;;5122382;28;20079;-72
2022/09/23 05:30:52;;;;;;;4.38;3.15;;;8.50;99.90;;;;;;5121264;28;20031;-71
2022/09/23 05:33:18;;;;;;;8.00;4.22;;;8.50;99.90;;;;;;5119664;28;20028;-71
2022/09/23 05:35:47;;;;;;;6.63;3.72;;;8.50;99.90;;;;;;5119184;28;20032;-72
2022/09/23 05:38:15;;;;;;;6.28;3.78;;;8.50;99.90;;;;;;5120357;28;20034;-72
2022/09/23 05:40:41;;;;;;;5.38;3.20;;;8.40;99.90;;;;;;5122182;28;20041;-72
2022/09/23 05:43:06;;;;;;;5.82;3.63;;;8.40;99.90;;;;;;5121363;27;20083;-71
2022/09/23 05:45:32;;;;;;;4.75;3.00;;;8.40;99.90;;;;;;5121997;28;20479;-72
2022/09/23 05:47:58;;;;;;;9.88;3.92;;;8.40;99.90;;;;;;5122349;28;20027;-71
2022/09/23 05:50:23;;;;;;;5.82;2.83;;;8.40;99.90;;;;;;5122320;28;20054;-71
2022/09/23 05:52:49;;;;;;;5.32;3.58;;;8.40;99.90;;;;;;5122491;28;20031;-71
2022/09/23 05:55:15;;;;;;;8.02;3.47;;;8.40;99.90;;;;;;5122259;28;20085;-72
2022/09/23 05:57:41;;;;;;;9.23;4.85;;;8.40;99.90;;;;;;5122104;28;20023;-71
2022/09/23 06:00:07;;;;;;;10.38;5.15;;;8.40;99.90;;;;;;5122043;28;20139;-71
2022/09/23 06:02:33;;;;;;;9.30;5.38;;;8.40;99.90;;;;;;5120336;28;20085;-71
2022/09/23 06:04:59;;;;;;;11.30;5.25;;;8.40;99.90;;;;;;5122400;28;20434;-70
2022/09/23 06:07:24;;;;;;;16.13;5.30;;;8.40;99.90;;;;;;5121343;28;20028;-69
2022/09/23 06:09:52;;;;;;;10.85;5.10;;;8.40;99.90;;;;;;5121439;28;20019;-71
2022/09/23 06:12:18;;;;;;;15.63;7.13;;;8.40;99.90;;;;;;5120974;28;20018;-72
2022/09/23 06:14:44;;;;;;;18.50;8.30;;;8.50;99.90;;;;;;5121618;28;20024;-71
2022/09/23 06:17:09;;;;;;;13.27;5.32;;;8.50;99.90;;;;;;5119394;28;20111;-71
2022/09/23 06:19:35;;;;;;;9.48;5.20;;;8.50;99.90;;;;;;5121684;28;20031;-71
2022/09/23 06:22:01;;;;;;;7.10;3.88;;;8.60;99.90;;;;;;5120435;28;20088;-72
2022/09/23 06:24:26;;;;;;;7.15;4.13;;;8.60;99.90;;;;;;5121473;28;20087;-73
2022/09/23 06:26:52;;;;;;;11.65;3.92;;;8.60;99.90;;;;;;5121704;28;20028;-70
2022/09/23 06:29:17;;;;;;;7.25;4.05;;;8.60;99.90;;;;;;5121678;28;20096;-71
2022/09/23 06:31:43;;;;;;;5.47;3.45;;;8.70;99.90;;;;;;5119720;28;20075;-72
2022/09/23 06:34:11;;;;;;;9.40;3.35;;;8.70;99.90;;;;;;5121246;28;20024;-72
2022/09/23 06:36:36;;;;;;;10.07;3.55;;;8.80;99.90;;;;;;5121695;28;20079;-71
2022/09/23 06:39:02;;;;;;;9.80;3.80;;;8.90;99.90;;;;;;5121595;28;20069;-72
2022/09/23 06:41:28;;;;;;;6.65;3.45;;;8.90;99.90;;;;;;5121131;28;20093;-73
2022/09/23 06:43:53;;;;;;;6.00;4.03;;;9.00;99.90;;;;;;5118822;28;20023;-72
2022/09/23 06:46:19;;;;;;;5.47;3.38;;;9.10;99.90;;;;;;5121339;28;20027;-71
2022/09/23 06:48:45;;;;;;;8.02;3.92;;;9.10;99.90;;;;;;5119113;28;20023;-72
2022/09/23 06:51:17;;;;;;;5.72;3.42;;;9.20;99.90;;;;;;5117507;28;20361;-73
2022/09/23 06:53:44;;;;;;;11.35;3.60;;;9.30;99.90;;;;;;5117624;28;20020;-72
2022/09/23 06:56:10;;;;;;;6.00;3.80;;;9.40;99.90;;;;;;5119694;28;20020;-73
2022/09/23 06:58:37;;;;;;;5.50;3.63;;;9.40;99.90;;;;;;5120139;28;20042;-73
2022/09/23 07:01:05;;;;;;;5.32;3.40;;;9.50;99.90;;;;;;5118620;28;20016;-72
2022/09/23 07:03:32;;;;;;;6.05;3.30;;;9.60;99.90;;;;;;5118944;28;20046;-74
2022/09/23 07:05:58;;;;;;;6.30;3.72;;;9.60;99.90;;;;;;5118957;28;20036;-71
2022/09/23 07:08:26;;;;;;;16.88;4.13;;;9.60;99.90;;;;;;5121039;28;20016;-73
2022/09/23 07:10:58;;;;;;;11.10;3.72;;;9.70;99.90;;;;;;5119850;28;20111;-73
2022/09/23 07:13:28;;;;;;;8.38;3.33;;;9.70;99.90;;;;;;5120410;28;20024;-72
2022/09/23 07:15:57;;;;;;;9.48;4.00;;;9.80;99.90;;;;;;5120298;28;20020;-72
2022/09/23 07:18:24;;;;;;;6.28;3.33;;;9.80;99.90;;;;;;5121589;28;20112;-72
2022/09/23 07:20:56;;;;;;;5.57;3.40;;;9.90;99.90;;;;;;5119673;28;20370;-72
2022/09/23 07:23:22;;;;;;;6.43;3.63;;;9.90;99.90;;;;;;5119969;28;20039;-73
2022/09/23 07:25:50;;;;;;;7.40;3.53;;;10.00;99.90;;;;;;5120432;28;20065;-72
2022/09/23 07:28:16;;;;;;;7.35;3.80;;;10.00;99.90;;;;;;5121235;28;20019;-74
2022/09/23 07:30:43;;;;;;;6.32;3.80;;;10.10;99.90;;;;;;5124067;28;20483;-72
2022/09/23 07:33:09;;;;;;;6.47;3.40;;;10.10;99.90;;;;;;5124509;28;20451;-73
2022/09/23 07:35:41;;;;;;;9.70;3.47;;;10.20;99.90;;;;;;5124650;28;20016;-73
2022/09/23 07:38:10;;;;;;;7.57;3.70;;;10.30;99.90;;;;;;5124134;28;20012;-72
2022/09/23 07:40:37;;;;;;;5.03;2.97;;;10.30;99.90;;;;;;5124135;28;20043;-72
2022/09/23 07:43:04;;;;;;;6.13;3.75;;;10.50;99.90;;;;;;5122531;28;20495;-73
2022/09/23 07:45:32;;;;;;;8.65;3.65;;;10.70;99.90;;;;;;5122893;28;20391;-73
2022/09/23 07:47:57;;;;;;;7.07;3.50;;;10.90;99.90;;;;;;5121617;28;20106;-73
2022/09/23 07:50:23;;;;;;;5.20;2.95;;;11.00;99.90;;;;;;5124885;28;20078;-74
2022/09/23 07:52:51;;;;;;;5.20;2.83;;;11.20;99.90;;;;;;5122669;27;20081;-73
2022/09/23 07:55:18;;;;;;;5.20;3.10;;;11.40;99.90;;;;;;5117766;28;20033;-73
2022/09/23 07:57:45;;;;;;;8.00;3.40;;;11.50;99.90;;;;;;5123230;28;20032;-72
2022/09/23 08:00:12;;;;;;;8.77;3.40;;;11.70;99.90;;;;;;5117673;28;20020;-73
2022/09/23 08:02:41;;;;;;;4.63;2.72;;;11.80;99.90;;;;;;5121798;28;20449;-73
2022/09/23 08:05:08;;;;;;;6.07;3.17;;;12.00;99.90;;;;;;5118153;28;20072;-73
2022/09/23 08:07:34;;;;;;;9.13;3.13;;;12.10;99.90;;;;;;5122090;28;20050;-74
2022/09/23 08:10:00;;;;;;;7.47;3.05;;;12.30;99.90;;;;;;5120186;28;20032;-73
2022/09/23 08:12:26;;;;;;;5.65;3.35;;;12.30;99.90;;;;;;5118172;28;20621;-72
2022/09/23 08:14:52;;;;;;;5.60;2.50;;;12.40;99.90;;;;;;5121754;28;20924;-72
2022/09/23 08:17:17;;;;;;;8.77;3.40;;;12.40;99.90;;;;;;5123134;28;20016;-73
2022/09/23 08:19:43;;;;;;;4.95;3.47;;;12.60;99.90;;;;;;5121315;28;20071;-73
2022/09/23 08:22:09;;;;;;;7.40;3.78;;;12.50;99.90;;;;;;5121408;28;20036;-73
2022/09/23 08:24:34;;;;;;;5.72;3.28;;;12.60;99.90;;;;;;5122144;28;20057;-74
2022/09/23 08:27:00;;;;;;;7.93;3.55;;;12.70;99.90;;;;;;5118433;28;20122;-72
2022/09/23 08:29:26;;;;;;;17.00;3.60;;;12.70;99.90;;;;;;5120641;28;20027;-72
2022/09/23 08:31:53;;;;;;;6.60;3.25;;;12.80;99.90;;;;;;5121086;28;20028;-74
2022/09/23 08:34:20;;;;;;;5.90;3.13;;;12.80;99.90;;;;;;5121308;28;20040;-74
2022/09/23 08:36:46;;;;;;;8.20;3.17;;;12.90;99.90;;;;;;5123520;28;20024;-74
2022/09/23 08:39:14;;;;;;;12.32;3.65;;;12.90;99.90;;;;;;5122405;28;20020;-74
2022/09/23 08:41:44;;;;;;;7.70;2.95;;;12.90;99.90;;;;;;5120154;28;20051;-73
2022/09/23 08:44:25;;;;;;;7.20;3.17;;;13.00;99.90;;;;;;5121631;28;20455;-76
2022/09/23 08:46:58;;;;;;;5.20;2.63;;;13.20;99.90;;;;;;5122760;28;20031;-73
2022/09/23 08:49:47;;;;;;;4.57;2.80;;;13.30;99.90;;;;;;5123566;28;20032;-75
2022/09/23 08:52:20;;;;;;;4.85;2.95;;;13.50;99.90;;;;;;5100825;28;20122;-74
2022/09/23 08:54:46;;;;;;;7.50;2.92;;;13.70;99.90;;;;;;5122934;28;20028;-73
2022/09/23 08:57:30;;;;;;;6.25;2.72;;;13.80;99.90;;;;;;5120742;28;20040;-72
2022/09/23 08:59:56;;;;;;;4.88;2.72;;;14.00;99.90;;;;;;5123277;28;20028;-73
2022/09/23 09:02:22;;;;;;;4.93;2.83;;;14.10;99.90;;;;;;5123438;28;20044;-74
2022/09/23 09:05:02;;;;;;;4.75;2.45;;;14.20;99.90;;;;;;5120770;28;20426;-74
2022/09/23 09:07:33;;;;;;;5.57;3.05;;;14.40;99.90;;;;;;5122923;28;20027;-75
2022/09/23 09:10:09;;;;;;;5.97;2.50;;;14.50;99.90;;;;;;5120731;28;20054;-75
2022/09/23 09:13:05;;;;;;;3.70;2.38;;;14.60;99.90;;;;;;5121282;28;20043;-73
2022/09/23 09:15:49;;;;;;;4.68;2.40;;;14.70;99.90;;;;;;5118352;28;20036;-75
2022/09/23 09:18:21;;;;;;;4.78;2.88;;;14.70;99.90;;;;;;5121190;28;20020;-72
2022/09/23 09:21:07;;;;;;;3.92;2.35;;;14.70;99.90;;;;;;5120091;28;20032;-73
2022/09/23 09:23:36;;;;;;;4.88;2.28;;;14.80;99.90;;;;;;5121770;28;20027;-74
2022/09/23 09:26:03;;;;;;;4.65;2.55;;;14.90;99.90;;;;;;5122599;28;20012;-75
2022/09/23 09:28:36;;;;;;;3.35;2.10;;;14.90;99.90;;;;;;5119666;28;20043;-77
2022/09/23 09:31:10;;;;;;;3.03;2.20;;;15.00;99.90;;;;;;5121734;28;20050;-76
2022/09/23 09:34:00;;;;;;;3.03;2.30;;;15.00;99.90;;;;;;5121099;28;20048;-79
2022/09/23 09:37:00;;;;;;;4.10;2.08;;;15.00;99.90;;;;;;5121604;28;20027;-75
2022/09/23 09:39:26;;;;;;;4.13;2.13;;;15.10;99.90;;;;;;5113871;28;20036;-77
2022/09/23 09:41:54;;;;;;;4.65;2.35;;;15.10;99.90;;;;;;5120373;28;20067;-74
2022/09/23 09:44:45;;;;;;;4.25;2.22;;;15.20;99.90;;;;;;5114223;28;20029;-79
2022/09/23 09:47:19;;;;;;;3.33;1.75;;;15.20;99.90;;;;;;5117315;28;20506;-76
2022/09/23 09:49:53;;;;;;;5.80;2.15;;;15.20;99.90;;;;;;5119258;28;20129;-76
2022/09/23 09:52:18;;;;;;;6.27;2.73;;;15.30;99.90;;;;;;5121916;28;20032;-74
2022/09/23 09:54:44;;;;;;;4.07;2.22;;;15.30;99.90;;;;;;5120957;28;20099;-73
2022/09/23 09:57:30;;;;;;;4.82;2.30;;;15.30;99.90;;;;;;5120916;28;20028;-76
2022/09/23 09:59:56;;;;;;;5.88;2.08;;;15.30;99.90;;;;;;5122208;28;20021;-77
2022/09/23 10:02:32;;;;;;;4.32;2.38;;;15.40;99.90;;;;;;5121992;28;20054;-76
2022/09/23 10:05:06;;;;;;;2.70;1.95;;;15.40;99.90;;;;;;5108041;28;20099;-74
2022/09/23 10:07:33;;;;;;;4.13;2.13;;;15.40;99.90;;;;;;5112826;27;20147;-79
2022/09/23 10:10:23;;;;;;;8.45;2.45;;;15.50;99.90;;;;;;5117252;28;20039;-74
2022/09/23 10:12:51;;;;;;;3.63;2.08;;;15.60;99.90;;;;;;5118780;28;20674;-77
2022/09/23 10:15:29;;;;;;;5.30;2.33;;;15.50;99.90;;;;;;5116948;28;20012;-74
2022/09/23 10:17:55;;;;;;;6.43;2.47;;;15.70;99.90;;;;;;5114390;28;20023;-76
2022/09/23 10:20:21;;;;;;;8.18;2.67;;;15.70;99.90;;;;;;5119074;28;20031;-74
2022/09/23 10:22:47;;;;;;;5.75;2.40;;;15.80;99.90;;;;;;5112306;28;20039;-84
2022/09/23 10:25:19;;;;;;;4.18;2.30;;;15.80;99.90;;;;;;5114723;28;20022;-76
2022/09/23 10:27:45;;;;;;;6.10;2.40;;;15.90;99.90;;;;;;5116781;28;20015;-75
2022/09/23 10:30:25;;;;;;;5.13;2.38;;;16.00;99.90;;;;;;5115179;28;20543;-74
2022/09/23 10:32:53;;;;;;;12.02;3.03;;;16.00;99.90;;;;;;5118354;28;20066;-75
2022/09/23 10:35:23;;;;;;;4.60;2.53;;;16.10;99.90;;;;;;5116756;28;20387;-76
2022/09/23 10:37:50;;;;;;;4.40;2.47;;;16.00;99.90;;;;;;5107082;28;20038;-74
2022/09/23 10:49:33;;;;;;;3.20;1.92;;;16.30;99.90;;;;;;5113463;28;20099;-74
2022/09/23 10:52:36;;;;;;;8.60;2.28;;;16.40;99.90;;;;;;5103452;28;20082;-74
2022/09/23 10:55:43;;;;;;;4.93;2.55;;;16.50;99.90;;;;;;5120314;28;20024;-77
2022/09/23 10:58:24;;;;;;;4.72;2.70;;;16.70;99.90;;;;;;5096263;28;20094;-74
2022/09/23 11:01:04;;;;;;;4.05;2.28;;;16.80;99.90;;;;;;5115293;28;20068;-71
2022/09/23 11:03:58;;;;;;;4.10;2.38;;;17.00;99.90;;;;;;5120772;28;20039;-74
2022/09/23 11:06:35;;;;;;;4.67;2.23;;;17.10;99.90;;;;;;5124896;28;20091;-74
2022/09/23 11:09:20;;;;;;;4.07;2.38;;;17.20;99.90;;;;;;5123655;28;20020;-75
2022/09/23 11:11:50;;;;;;;;;;;17.40;99.90;;;;;;5124275;28;20020;-75
2022/09/23 11:14:37;;;;;;;6.28;1.77;;;17.60;99.90;;;;;;5122894;28;19903;-73
2022/09/23 11:17:23;;;;;;;3.42;2.22;;;17.80;99.90;;;;;;5123101;28;20058;-77
2022/09/23 11:20:13;;;;;;;2.95;2.00;;;18.00;99.90;;;;;;5123276;28;20916;-74
2022/09/23 11:23:13;;;;;;;3.65;2.10;;;18.10;99.90;;;;;;5123285;28;20050;-73
2022/09/23 11:25:45;;;;;;;3.08;1.88;;;18.00;99.90;;;;;;5124296;28;20019;-79
2022/09/23 11:28:22;;;;;;;3.28;1.83;;;18.10;99.90;;;;;;5124155;28;20020;-76
2022/09/23 11:31:19;;;;;;;4.38;2.15;;;18.00;99.90;;;;;;5124205;28;20023;-74
2022/09/23 11:34:13;;;;;;;4.45;2.17;;;18.00;99.90;;;;;;5123169;28;20019;-72
2022/09/23 11:36:38;;;;;;;4.90;2.03;;;18.00;99.90;;;;;;5122459;28;20352;-74
2022/09/23 11:39:15;;;;;;;4.53;2.17;;;18.00;99.90;;;;;;5124491;27;20041;-76
2022/09/23 11:41:42;;;;;;;3.92;1.98;;;18.10;99.90;;;;;;5122353;28;20074;-79
2022/09/23 11:44:35;;;;;;;5.70;2.10;;;18.10;99.90;;;;;;5124833;28;20105;-73
2022/09/23 11:47:12;;;;;;;4.68;2.30;;;18.10;99.90;;;;;;5124634;28;20024;-75
2022/09/23 11:50:08;;;;;;;2.47;1.88;;;18.00;99.90;;;;;;5123083;28;20097;-75
2022/09/23 11:52:46;;;;;;;3.40;1.63;;;17.90;99.90;;;;;;5123929;28;20355;-75
2022/09/23 11:55:19;;;;;;;6.32;1.85;;;17.90;99.90;;;;;;5124435;28;20039;-73
2022/09/23 11:57:50;;;;;;;4.20;2.35;;;17.90;99.90;;;;;;5124292;28;20028;-76
2022/09/23 12:00:17;;;;;;;5.07;2.35;;;17.90;99.90;;;;;;5122702;28;20024;-75
2022/09/23 12:03:02;;;;;;;5.15;2.28;;;17.80;99.90;;;;;;5122542;28;20059;-75
2022/09/23 12:05:33;;;;;;;3.55;2.17;;;17.70;99.90;;;;;;5122122;28;20034;-73
2022/09/23 12:08:24;;;;;;;4.22;1.92;;;17.60;99.90;;;;;;5123916;28;20045;-71
2022/09/23 12:11:22;;;;;;;3.60;2.00;;;17.60;99.90;;;;;;5121346;28;20027;-75
2022/09/23 12:14:09;;;;;;;8.55;2.42;;;17.60;99.90;;;;;;5113715;28;20039;-75
2022/09/23 12:16:57;;;;;;;3.42;1.40;;;17.50;99.90;;;;;;5122000;28;20893;-73
2022/09/23 12:19:50;;;;;;;5.22;2.03;;;17.50;99.90;;;;;;5120015;28;20032;-72
2022/09/23 12:22:53;;;;;;;5.57;2.03;;;17.50;99.90;;;;;;5118675;28;20031;-73
2022/09/23 12:25:50;;;;;;;2.90;1.80;;;17.50;99.90;;;;;;5122688;28;20051;-75
2022/09/23 12:28:24;;;;;;;4.22;2.33;;;17.50;99.90;;;;;;5120399;28;20024;-75
2022/09/23 12:30:52;;;;;;;3.25;2.05;;;17.50;99.90;;;;;;5123369;28;20024;-73
2022/09/23 12:33:23;;;;;;;2.63;1.77;;;17.40;99.90;;;;;;5122445;28;20016;-74
2022/09/23 12:35:53;;;;;;;3.00;1.80;;;17.50;99.90;;;;;;5122996;28;20024;-72
2022/09/23 12:38:29;;;;;;;2.90;2.00;;;17.40;99.90;;;;;;5122965;28;20020;-73
2022/09/23 12:40:55;;;;;;;8.07;2.08;;;17.50;99.90;;;;;;5124173;28;20024;-73
2022/09/23 12:43:34;;;;;;;3.55;2.03;;;17.50;99.90;;;;;;5122471;28;20059;-72
2022/09/23 12:46:24;;;;;;;5.00;2.40;;;17.60;99.90;;;;;;5123179;28;20092;-74
2022/09/23 12:48:56;;;;;;;3.15;2.08;;;17.60;99.90;;;;;;5122185;28;20027;-74
2022/09/23 12:51:23;;;;;;;3.47;2.20;;;17.50;99.90;;;;;;5122790;28;20026;-74
2022/09/23 12:54:03;;;;;;;4.28;2.50;;;17.70;99.90;;;;;;5123600;28;20023;-72
2022/09/23 12:56:31;;;;;;;4.10;2.20;;;17.70;99.90;;;;;;5123461;28;20023;-75
2022/09/23 12:59:08;;;;;;;9.50;3.60;;;17.70;99.90;;;;;;5123074;28;20051;-71
2022/09/23 13:01:36;;;;;;;4.63;2.80;;;17.90;99.90;;;;;;5123022;28;20024;-73
2022/09/23 13:07:06;;;;;;;;;;;18.00;99.90;;;;;;5122867;28;20050;-74
2022/09/23 13:09:39;;;;;;;5.20;2.47;;;18.10;99.90;;;;;;5122929;28;19911;-75
2022/09/23 13:12:18;;;;;;;3.08;1.92;;;18.20;99.90;;;;;;5122749;28;20023;-75
2022/09/23 13:14:48;;;;;;;2.83;1.80;;;18.20;99.90;;;;;;5122881;28;20379;-73
2022/09/23 13:17:31;;;;;;;3.75;2.30;;;18.30;99.90;;;;;;5123128;28;20023;-73
2022/09/23 13:20:24;;;;;;;5.38;2.42;;;18.30;99.90;;;;;;5122798;28;20027;-74
2022/09/23 13:22:53;;;;;;;5.07;2.40;;;18.40;99.90;;;;;;5122422;28;20043;-72
2022/09/23 13:25:22;;;;;;;4.63;2.45;;;18.40;99.90;;;;;;5120831;28;20027;-73
2022/09/23 13:27:51;;;;;;;6.32;2.72;;;18.40;99.90;;;;;;5121346;28;20106;-73
2022/09/23 13:30:23;;;;;;;3.97;2.42;;;18.30;99.90;;;;;;5122492;28;20027;-74
2022/09/23 13:33:03;;;;;;;2.35;1.90;;;18.30;99.90;;;;;;5121105;28;20046;-77